Time;durP1;ratioP1;P1;durP2;ratioP2;P2;SDS_P1;SDS_P2;PMS_P1;PMS_P2;Temp;Humidity;BMP_temperature;BMP_pressure;BME280_temperature;BME280_humidity;BME280_pressure;Samples;Min_cycle;Max_cycle;Signal;HPM_P1;HPM_P2
2022/07/29 00:02:28;;;;;;;4.20;2.30;;;16.90;99.90;;;;;;5087004;28;20247;-87
2022/07/29 00:04:56;;;;;;;6.83;2.50;;;16.90;99.90;;;;;;5086150;28;20365;-83
2022/07/29 00:07:23;;;;;;;5.40;2.83;;;16.90;99.90;;;;;;5080933;28;20310;-85
2022/07/29 00:09:50;;;;;;;3.73;2.40;;;16.90;99.90;;;;;;5083681;28;20215;-86
2022/07/29 00:12:24;;;;;;;4.67;2.43;;;16.90;99.90;;;;;;5074566;28;20273;-85
2022/07/29 00:14:56;;;;;;;5.30;2.70;;;16.90;99.90;;;;;;5079514;28;20836;-83
2022/07/29 00:17:24;;;;;;;5.73;2.40;;;16.90;99.90;;;;;;5085326;28;20228;-83
2022/07/29 00:19:52;;;;;;;5.93;2.80;;;16.80;99.90;;;;;;5085679;28;20272;-84
2022/07/29 00:22:20;;;;;;;4.20;2.53;;;16.90;99.90;;;;;;5082166;28;20211;-83
2022/07/29 00:24:48;;;;;;;7.00;2.77;;;16.80;99.90;;;;;;5085250;28;20203;-83
2022/07/29 00:27:17;;;;;;;3.07;2.77;;;16.80;99.90;;;;;;5083654;28;20571;-84
2022/07/29 00:29:44;;;;;;;3.83;2.67;;;16.80;99.90;;;;;;5084127;28;20208;-83
2022/07/29 00:32:11;;;;;;;3.43;2.70;;;16.80;99.90;;;;;;5084436;28;20224;-86
2022/07/29 00:37:23;;;;;;;4.90;2.80;;;16.80;99.90;;;;;;5085782;28;20208;-83
2022/07/29 00:39:50;;;;;;;5.60;2.70;;;16.70;99.90;;;;;;5085798;28;20208;-84
2022/07/29 00:42:17;;;;;;;5.57;2.97;;;16.70;99.90;;;;;;5078326;28;20211;-86
2022/07/29 00:44:44;;;;;;;3.37;2.20;;;16.70;99.90;;;;;;5079617;28;20207;-84
2022/07/29 00:47:12;;;;;;;5.17;2.60;;;16.60;99.90;;;;;;5086293;28;20275;-85
2022/07/29 00:49:42;;;;;;;4.07;2.47;;;16.60;99.90;;;;;;5090522;28;20227;-84
2022/07/29 00:52:10;;;;;;;4.77;2.90;;;16.60;99.90;;;;;;5083516;28;20673;-85
2022/07/29 00:54:42;;;;;;;6.77;3.27;;;16.50;99.90;;;;;;5078116;28;20223;-85
2022/07/29 00:57:11;;;;;;;9.70;3.30;;;16.50;99.90;;;;;;5076943;28;20211;-86
2022/07/29 00:59:39;;;;;;;5.07;3.03;;;16.50;99.90;;;;;;5081950;28;20203;-85
2022/07/29 01:02:06;;;;;;;3.97;2.80;;;16.40;99.90;;;;;;5082813;28;20220;-83
2022/07/29 01:04:33;;;;;;;6.27;3.30;;;16.40;99.90;;;;;;5082695;28;20227;-85
2022/07/29 01:07:05;;;;;;;4.07;2.77;;;16.40;99.90;;;;;;5082089;28;20681;-86
2022/07/29 01:09:33;;;;;;;4.90;3.03;;;16.40;99.90;;;;;;5082325;28;20196;-85
2022/07/29 01:12:16;;;;;;;5.67;2.97;;;16.40;99.90;;;;;;5083340;28;20977;-85
2022/07/29 01:14:44;;;;;;;3.73;2.73;;;16.20;99.90;;;;;;5083688;28;20203;-84
2022/07/29 01:17:31;;;;;;;9.43;3.63;;;16.30;99.90;;;;;;5086090;28;20283;-87
2022/07/29 01:20:21;;;;;;;3.43;3.13;;;16.40;99.90;;;;;;5085457;28;20196;-84
2022/07/29 01:23:30;;;;;;;4.43;3.10;;;16.30;99.90;;;;;;5103709;28;20205;-84
2022/07/29 01:26:36;;;;;;;6.90;3.43;;;16.30;99.90;;;;;;5102705;28;20245;-84
2022/07/29 01:29:08;;;;;;;3.93;3.30;;;16.30;99.90;;;;;;5096313;28;20200;-85
2022/07/29 01:32:08;;;;;;;7.40;3.60;;;16.30;99.90;;;;;;5103139;28;20743;-85
2022/07/29 01:35:14;;;;;;;4.47;3.40;;;16.30;99.90;;;;;;5099509;28;20208;-85
2022/07/29 01:37:51;;;;;;;3.93;3.27;;;16.20;99.90;;;;;;5096392;28;20203;-86
2022/07/29 01:40:46;;;;;;;4.47;3.17;;;16.20;99.90;;;;;;5094592;28;20656;-85
2022/07/29 01:43:23;;;;;;;5.50;3.20;;;16.20;99.90;;;;;;5106627;28;20203;-84
2022/07/29 01:45:57;;;;;;;7.10;3.07;;;16.20;99.90;;;;;;5091711;28;20222;-84
2022/07/29 01:48:36;;;;;;;6.70;3.73;;;16.20;99.90;;;;;;5081770;28;20301;-84
2022/07/29 01:51:19;;;;;;;8.83;3.37;;;16.20;99.90;;;;;;5092070;28;20260;-85
2022/07/29 01:53:49;;;;;;;3.53;2.90;;;16.20;99.90;;;;;;5080626;28;20781;-87
2022/07/29 01:56:20;;;;;;;5.77;3.70;;;16.20;99.90;;;;;;5084403;28;20197;-85
2022/07/29 01:58:52;;;;;;;4.77;3.13;;;16.20;99.90;;;;;;5087779;28;20254;-83
2022/07/29 02:01:20;;;;;;;6.77;3.30;;;16.10;99.90;;;;;;5087613;28;20215;-84
2022/07/29 02:03:48;;;;;;;6.57;3.33;;;16.20;99.90;;;;;;5084788;28;20224;-83
2022/07/29 02:06:19;;;;;;;3.90;3.10;;;16.10;99.90;;;;;;5106828;28;20232;-84
2022/07/29 02:08:48;;;;;;;5.43;3.30;;;16.20;99.90;;;;;;5115817;28;20199;-84
2022/07/29 02:11:16;;;;;;;4.83;3.40;;;16.00;99.90;;;;;;5101863;28;20240;-83
2022/07/29 02:13:45;;;;;;;6.80;3.23;;;16.10;99.90;;;;;;5078985;28;20662;-85
2022/07/29 02:16:20;;;;;;;5.60;3.50;;;16.10;99.90;;;;;;5078995;28;20204;-84
2022/07/29 02:19:02;;;;;;;7.60;3.67;;;16.20;99.90;;;;;;5082257;28;20271;-85
2022/07/29 02:21:32;;;;;;;4.90;3.57;;;16.20;99.90;;;;;;5096915;28;20761;-84
2022/07/29 02:24:04;;;;;;;3.80;3.23;;;16.00;99.90;;;;;;5085901;28;20276;-84
2022/07/29 02:26:33;;;;;;;6.70;4.00;;;16.20;99.90;;;;;;5080149;28;20235;-84
2022/07/29 02:29:01;;;;;;;6.00;3.43;;;16.20;99.90;;;;;;5082930;28;20199;-85
2022/07/29 02:31:33;;;;;;;4.13;3.20;;;16.20;99.90;;;;;;5084918;28;20747;-83
2022/07/29 02:34:03;;;;;;;5.93;3.70;;;16.20;99.90;;;;;;5084923;28;20215;-86
2022/07/29 02:36:31;;;;;;;4.47;3.20;;;16.30;99.90;;;;;;5088891;28;20260;-86
2022/07/29 02:39:00;;;;;;;5.40;3.00;;;16.30;99.90;;;;;;5083883;28;20919;-84
2022/07/29 02:41:33;;;;;;;5.57;3.90;;;16.30;99.90;;;;;;5081171;28;20200;-84
2022/07/29 02:44:15;;;;;;;4.47;2.93;;;16.30;99.90;;;;;;5077137;28;20241;-84
2022/07/29 02:47:03;;;;;;;5.33;3.27;;;16.30;99.90;;;;;;5090872;28;20216;-83
2022/07/29 02:49:59;;;;;;;3.63;3.00;;;16.30;99.90;;;;;;5056902;28;20768;-83
2022/07/29 02:52:31;;;;;;;8.80;3.77;;;16.40;99.90;;;;;;5088913;28;20295;-85
2022/07/29 02:55:02;;;;;;;3.30;3.00;;;16.30;99.90;;;;;;5089694;28;20208;-84
2022/07/29 02:57:34;;;;;;;4.10;3.70;;;16.40;99.90;;;;;;5081524;28;20224;-83
2022/07/29 03:00:23;;;;;;;6.17;3.33;;;16.30;99.90;;;;;;5082691;28;20581;-84
2022/07/29 03:02:53;;;;;;;4.43;3.53;;;16.30;99.90;;;;;;5080190;28;20216;-85
2022/07/29 03:05:22;;;;;;;5.30;3.37;;;16.40;99.90;;;;;;5080906;28;20236;-84
2022/07/29 03:08:03;;;;;;;5.73;3.70;;;16.40;99.90;;;;;;5086111;28;20299;-84
2022/07/29 03:10:31;;;;;;;4.97;3.67;;;16.40;99.90;;;;;;5082948;28;20207;-85
2022/07/29 03:12:59;;;;;;;7.43;3.30;;;16.40;99.90;;;;;;5076578;28;20219;-85
2022/07/29 03:15:27;;;;;;;4.93;3.43;;;16.40;99.90;;;;;;5081704;28;20286;-85
2022/07/29 03:17:55;;;;;;;5.93;3.77;;;16.40;99.90;;;;;;5082142;28;20310;-84
2022/07/29 03:20:22;;;;;;;5.70;3.37;;;16.30;99.90;;;;;;5079459;28;20294;-84
2022/07/29 03:22:50;;;;;;;5.03;3.70;;;16.40;99.90;;;;;;5082934;28;20581;-84
2022/07/29 03:25:19;;;;;;;6.00;4.00;;;16.40;99.90;;;;;;5076525;28;20207;-84
2022/07/29 03:27:47;;;;;;;5.10;3.90;;;16.40;99.90;;;;;;5078618;28;20228;-84
2022/07/29 03:30:15;;;;;;;5.30;3.80;;;16.40;99.90;;;;;;5084934;28;20227;-83
2022/07/29 03:32:48;;;;;;;7.57;4.20;;;16.30;99.90;;;;;;5086019;28;20293;-85
2022/07/29 03:35:19;;;;;;;6.13;3.90;;;16.40;99.90;;;;;;5086377;28;20238;-84
2022/07/29 03:37:46;;;;;;;6.80;4.17;;;16.20;99.90;;;;;;5083370;28;20239;-84
2022/07/29 03:40:21;;;;;;;4.80;3.63;;;16.30;99.90;;;;;;5082666;28;20196;-83
2022/07/29 03:42:51;;;;;;;9.93;4.40;;;16.30;99.90;;;;;;5080080;28;20199;-85
2022/07/29 03:45:21;;;;;;;5.77;4.20;;;16.20;99.90;;;;;;5078385;28;20309;-85
2022/07/29 03:48:06;;;;;;;5.00;3.83;;;16.30;99.90;;;;;;5083108;28;20984;-84
2022/07/29 03:50:34;;;;;;;4.57;3.63;;;16.30;99.90;;;;;;5087741;28;20199;-84
2022/07/29 03:53:02;;;;;;;11.07;4.20;;;16.20;99.90;;;;;;5083893;28;20215;-84
2022/07/29 03:55:33;;;;;;;5.10;4.03;;;16.20;99.90;;;;;;5087959;28;20200;-83
2022/07/29 03:58:01;;;;;;;5.33;3.70;;;16.30;99.90;;;;;;5081331;28;20299;-84
2022/07/29 04:00:29;;;;;;;4.97;3.57;;;16.30;99.90;;;;;;5086075;28;20207;-84
2022/07/29 04:02:57;;;;;;;5.57;3.50;;;16.30;99.90;;;;;;5082792;28;20309;-84
2022/07/29 04:05:24;;;;;;;7.13;4.37;;;16.30;99.90;;;;;;5082848;28;20232;-84
2022/07/29 04:07:50;;;;;;;6.27;4.07;;;16.30;99.90;;;;;;5086437;28;20703;-84
2022/07/29 04:10:22;;;;;;;5.60;3.90;;;16.30;99.90;;;;;;5084561;28;20199;-85
2022/07/29 04:12:57;;;;;;;7.13;4.37;;;16.30;99.90;;;;;;5078058;28;20200;-84
2022/07/29 04:15:24;;;;;;;5.83;4.43;;;16.30;99.90;;;;;;5080717;28;20663;-85
2022/07/29 04:17:54;;;;;;;7.50;4.30;;;16.30;99.90;;;;;;5082566;28;20228;-84
2022/07/29 04:20:21;;;;;;;5.93;4.20;;;16.30;99.90;;;;;;5086470;28;20211;-84
2022/07/29 04:22:48;;;;;;;8.13;4.57;;;16.30;99.90;;;;;;5083043;28;20584;-83
2022/07/29 04:25:17;;;;;;;7.77;4.30;;;16.30;99.90;;;;;;5084406;28;20204;-83
2022/07/29 04:28:01;;;;;;;5.70;4.43;;;16.20;99.90;;;;;;5077564;28;20227;-87
2022/07/29 04:30:29;;;;;;;6.30;4.50;;;16.20;99.90;;;;;;5072147;28;20196;-84
2022/07/29 04:32:56;;;;;;;6.83;5.00;;;16.10;99.90;;;;;;5079917;28;20219;-85
2022/07/29 04:35:23;;;;;;;5.20;4.70;;;16.10;99.90;;;;;;5077333;28;20207;-84
2022/07/29 04:37:50;;;;;;;6.27;4.63;;;16.00;99.90;;;;;;5086687;28;20216;-84
2022/07/29 04:40:17;;;;;;;5.27;4.43;;;15.90;99.90;;;;;;5081613;28;20213;-84
2022/07/29 04:42:44;;;;;;;7.43;4.30;;;15.90;99.90;;;;;;5073534;28;20215;-82
2022/07/29 04:45:14;;;;;;;6.53;4.40;;;15.80;99.90;;;;;;5074416;28;20687;-85
2022/07/29 04:47:42;;;;;;;6.13;4.77;;;15.80;99.90;;;;;;5080432;28;20279;-85
2022/07/29 04:50:10;;;;;;;8.17;4.67;;;15.70;99.90;;;;;;5083040;28;20211;-85
2022/07/29 04:52:37;;;;;;;8.77;5.23;;;15.60;99.90;;;;;;5086961;28;20232;-86
2022/07/29 04:55:06;;;;;;;9.73;5.03;;;15.50;99.90;;;;;;5080853;28;20226;-84
2022/07/29 04:57:33;;;;;;;8.63;4.90;;;15.40;99.90;;;;;;5086062;28;20219;-85
2022/07/29 05:00:13;;;;;;;8.80;5.40;;;15.30;99.90;;;;;;5078660;28;20200;-84
2022/07/29 05:02:40;;;;;;;8.97;5.30;;;15.20;99.90;;;;;;5071059;28;20285;-84
2022/07/29 05:05:08;;;;;;;7.80;5.03;;;15.20;99.90;;;;;;5073324;28;20219;-83
2022/07/29 05:07:35;;;;;;;11.27;5.90;;;15.20;99.90;;;;;;5077049;28;20590;-84
2022/07/29 05:10:05;;;;;;;10.40;6.13;;;15.20;99.90;;;;;;5072802;28;20204;-86
2022/07/29 05:12:35;;;;;;;8.53;5.80;;;15.20;99.90;;;;;;5092818;28;20240;-84
2022/07/29 05:15:03;;;;;;;6.30;5.40;;;15.20;99.90;;;;;;5079728;28;20612;-82
2022/07/29 05:17:35;;;;;;;8.60;5.33;;;15.20;99.90;;;;;;5076208;28;20236;-84
2022/07/29 05:20:02;;;;;;;10.73;5.67;;;15.20;99.90;;;;;;5083568;28;20203;-85
2022/07/29 05:22:29;;;;;;;8.60;6.33;;;15.20;99.90;;;;;;5083226;28;20304;-83
2022/07/29 05:25:02;;;;;;;7.07;5.83;;;15.10;99.90;;;;;;5081613;28;20201;-86
2022/07/29 05:27:38;;;;;;;7.80;6.73;;;15.10;99.90;;;;;;5080897;28;20238;-84
2022/07/29 05:30:10;;;;;;;9.60;6.33;;;15.10;99.90;;;;;;5079026;28;20261;-84
2022/07/29 05:32:40;;;;;;;7.40;5.67;;;15.10;99.90;;;;;;5086776;28;20220;-84
2022/07/29 05:35:08;;;;;;;11.10;5.60;;;15.10;99.90;;;;;;5081516;28;20215;-84
2022/07/29 05:37:35;;;;;;;6.47;5.77;;;15.10;99.90;;;;;;5092169;28;20222;-83
2022/07/29 05:40:03;;;;;;;8.07;6.27;;;15.20;99.90;;;;;;5084193;28;20211;-84
2022/07/29 05:42:30;;;;;;;11.60;5.53;;;15.20;99.90;;;;;;5082810;28;20588;-85
2022/07/29 05:44:57;;;;;;;10.63;6.60;;;15.20;99.90;;;;;;5082312;28;20552;-85
2022/07/29 05:47:24;;;;;;;8.63;6.33;;;15.20;99.90;;;;;;5077032;28;20259;-84
2022/07/29 05:49:51;;;;;;;6.87;5.50;;;15.20;99.90;;;;;;5079010;28;20257;-82
2022/07/29 05:52:18;;;;;;;9.33;6.77;;;15.30;99.90;;;;;;5081691;28;20211;-84
2022/07/29 05:54:47;;;;;;;12.50;7.80;;;15.30;99.90;;;;;;5088956;28;20715;-85
2022/07/29 05:57:25;;;;;;;7.80;5.97;;;15.40;99.90;;;;;;5074869;28;20215;-83
2022/07/29 05:59:52;;;;;;;9.03;7.30;;;15.40;99.90;;;;;;5075117;28;20283;-83
2022/07/29 06:02:19;;;;;;;13.13;7.60;;;15.50;99.90;;;;;;5079395;28;20306;-85
2022/07/29 06:04:49;;;;;;;10.13;7.20;;;15.50;99.90;;;;;;5084299;28;20316;-83
2022/07/29 06:07:16;;;;;;;9.37;6.90;;;15.60;99.90;;;;;;5081448;28;20232;-85
2022/07/29 06:09:46;;;;;;;8.80;6.23;;;15.70;99.90;;;;;;5082437;28;20320;-83
2022/07/29 06:12:16;;;;;;;8.63;6.33;;;15.70;99.90;;;;;;5084565;28;20204;-82
2022/07/29 06:14:45;;;;;;;9.57;6.07;;;15.80;99.90;;;;;;5084420;28;20201;-84
2022/07/29 06:17:19;;;;;;;7.50;5.37;;;15.90;99.90;;;;;;5081878;28;20230;-83
2022/07/29 06:19:47;;;;;;;10.00;5.63;;;16.00;99.90;;;;;;5085404;28;20285;-85
2022/07/29 06:22:16;;;;;;;8.17;5.30;;;16.00;99.90;;;;;;5089186;28;20258;-84
2022/07/29 06:24:46;;;;;;;8.67;5.60;;;16.00;99.90;;;;;;5078487;28;20204;-84
2022/07/29 06:27:13;;;;;;;6.50;5.20;;;16.20;99.90;;;;;;5076728;28;20224;-84
2022/07/29 06:29:40;;;;;;;6.33;4.97;;;16.60;99.90;;;;;;5081234;28;20295;-82
2022/07/29 06:32:08;;;;;;;7.40;5.37;;;16.40;99.90;;;;;;5083657;28;20722;-82
2022/07/29 06:34:36;;;;;;;8.50;4.93;;;16.50;99.90;;;;;;5085364;28;20582;-83
2022/07/29 06:37:07;;;;;;;7.57;4.87;;;16.60;99.90;;;;;;5088013;28;21013;-84
2022/07/29 06:39:41;;;;;;;11.43;5.90;;;16.70;99.90;;;;;;5089005;28;20291;-82
2022/07/29 06:42:08;;;;;;;8.10;5.63;;;16.70;99.90;;;;;;5088404;28;20272;-83
2022/07/29 06:44:35;;;;;;;6.80;5.57;;;16.80;99.90;;;;;;5088644;28;20207;-83
2022/07/29 06:47:02;;;;;;;6.57;4.20;;;16.90;99.90;;;;;;5082487;28;20227;-83
2022/07/29 06:49:29;;;;;;;7.43;5.50;;;17.00;99.90;;;;;;5078700;28;21240;-83
2022/07/29 06:51:59;;;;;;;7.23;4.97;;;17.10;99.90;;;;;;5071989;28;20733;-85
2022/07/29 06:54:26;;;;;;;7.37;4.63;;;17.10;99.90;;;;;;5086349;28;20224;-83
2022/07/29 06:56:53;;;;;;;7.03;4.77;;;;;;;;;;5084575;28;20303;-84
2022/07/29 06:59:20;;;;;;;7.03;4.80;;;17.20;99.90;;;;;;5085004;28;20703;-83
2022/07/29 07:01:59;;;;;;;7.97;4.70;;;17.30;99.90;;;;;;5086028;28;20575;-85
2022/07/29 07:04:26;;;;;;;8.77;5.10;;;17.40;99.90;;;;;;5091240;28;20692;-82
2022/07/29 07:06:55;;;;;;;5.95;4.78;;;17.40;99.90;;;;;;5086473;28;20867;-83
2022/07/29 07:09:22;;;;;;;8.50;4.78;;;17.40;99.90;;;;;;5090268;28;20211;-82
2022/07/29 07:11:49;;;;;;;6.55;5.32;;;17.40;99.90;;;;;;5099784;28;20204;-82
2022/07/29 07:14:18;;;;;;;7.88;4.53;;;17.50;99.90;;;;;;5102459;28;20321;-84
2022/07/29 07:16:46;;;;;;;6.10;5.40;;;17.60;99.90;;;;;;5094143;28;20626;-85
2022/07/29 07:19:18;;;;;;;8.45;4.25;;;17.70;99.90;;;;;;5090084;28;20628;-82
2022/07/29 07:21:44;;;;;;;8.63;5.72;;;17.70;99.90;;;;;;5088245;28;20204;-83
2022/07/29 07:24:15;;;;;;;8.07;4.43;;;17.80;99.90;;;;;;5081174;28;20205;-82
2022/07/29 07:26:42;;;;;;;5.88;4.38;;;17.90;99.90;;;;;;5091329;28;20210;-82
2022/07/29 07:29:11;;;;;;;4.78;4.32;;;18.00;99.90;;;;;;5080424;28;20204;-82
2022/07/29 07:31:38;;;;;;;7.00;4.82;;;18.00;99.90;;;;;;5081784;28;20200;-84
2022/07/29 07:34:05;;;;;;;6.50;4.55;;;18.00;99.90;;;;;;5083807;28;20676;-85
2022/07/29 07:36:32;;;;;;;4.80;4.15;;;18.20;99.90;;;;;;5083365;28;20212;-83
2022/07/29 07:38:59;;;;;;;6.80;4.35;;;18.40;99.90;;;;;;5083889;28;20294;-85
2022/07/29 07:41:29;;;;;;;6.13;4.13;;;18.50;99.90;;;;;;5080131;28;20211;-84
2022/07/29 07:43:58;;;;;;;7.20;4.07;;;18.70;99.90;;;;;;5082446;28;20287;-83
2022/07/29 07:46:26;;;;;;;7.30;4.43;;;18.90;99.90;;;;;;5084341;28;20287;-83
2022/07/29 07:48:53;;;;;;;6.53;4.28;;;19.10;99.90;;;;;;5087412;28;20271;-83
2022/07/29 07:51:22;;;;;;;6.45;4.28;;;19.20;99.90;;;;;;5090392;28;20207;-83
2022/07/29 07:53:52;;;;;;;6.97;4.10;;;19.20;99.90;;;;;;5081323;28;20724;-83
2022/07/29 07:56:23;;;;;;;6.15;4.32;;;19.30;99.90;;;;;;5093643;28;20203;-84
2022/07/29 07:58:50;;;;;;;6.07;3.83;;;19.40;99.90;;;;;;5082812;28;20230;-84
2022/07/29 08:01:19;;;;;;;6.47;4.25;;;19.50;99.90;;;;;;5086306;28;20228;-84
2022/07/29 08:03:46;;;;;;;6.78;4.20;;;19.50;99.90;;;;;;5088200;28;20219;-83
2022/07/29 08:06:14;;;;;;;8.05;5.07;;;19.70;99.90;;;;;;5088197;28;20295;-83
2022/07/29 08:08:41;;;;;;;5.63;4.25;;;19.80;99.90;;;;;;5089182;28;20224;-85
2022/07/29 08:11:09;;;;;;;5.80;3.83;;;20.00;99.90;;;;;;5095666;28;20267;-84
2022/07/29 08:13:37;;;;;;;8.70;3.78;;;20.20;99.90;;;;;;5089387;28;20208;-83
2022/07/29 08:16:12;;;;;;;6.07;3.70;;;20.40;99.90;;;;;;5085265;28;20231;-84
2022/07/29 08:18:41;;;;;;;6.65;4.18;;;20.50;99.90;;;;;;5089775;28;20607;-85
2022/07/29 08:21:10;;;;;;;5.57;4.35;;;20.60;99.90;;;;;;5092085;28;20225;-84
2022/07/29 08:23:52;;;;;;;7.53;4.20;;;20.80;99.90;;;;;;5087120;28;20204;-84
2022/07/29 08:26:27;;;;;;;6.55;3.63;;;20.80;99.90;;;;;;5102441;28;20198;-83
2022/07/29 08:28:54;;;;;;;6.10;4.10;;;20.80;99.90;;;;;;5095431;28;20220;-84
2022/07/29 08:31:22;;;;;;;5.45;4.20;;;20.90;99.90;;;;;;5102404;28;20275;-84
2022/07/29 08:33:48;;;;;;;7.15;3.45;;;20.80;99.90;;;;;;5107193;28;20223;-84
2022/07/29 08:36:15;;;;;;;8.63;4.50;;;20.80;99.90;;;;;;5101472;28;20438;-85
2022/07/29 08:38:42;;;;;;;7.18;4.45;;;20.80;99.90;;;;;;5103563;28;20215;-86
2022/07/29 08:41:12;;;;;;;5.72;3.65;;;20.80;99.90;;;;;;5103795;28;20226;-83
2022/07/29 08:43:40;;;;;;;7.88;4.40;;;20.80;99.90;;;;;;5103385;28;20275;-84
2022/07/29 08:46:07;;;;;;;6.72;4.00;;;20.90;99.90;;;;;;5088186;28;20200;-84
2022/07/29 08:48:36;;;;;;;7.72;4.07;;;20.90;99.90;;;;;;5086052;28;20227;-85
2022/07/29 08:51:05;;;;;;;6.45;4.47;;;20.90;99.90;;;;;;5088090;28;20200;-85
2022/07/29 08:53:32;;;;;;;5.30;3.65;;;20.90;99.90;;;;;;5087512;28;20207;-83
2022/07/29 08:56:01;;;;;;;7.35;3.78;;;20.90;99.90;;;;;;5088452;28;20204;-83
2022/07/29 08:58:33;;;;;;;5.47;4.00;;;21.00;99.90;;;;;;5083002;28;20224;-84
2022/07/29 09:01:07;;;;;;;8.55;4.20;;;21.10;99.90;;;;;;5090190;28;20633;-83
2022/07/29 09:03:40;;;;;;;6.40;4.22;;;21.10;99.90;;;;;;5084420;28;20694;-84
2022/07/29 09:06:16;;;;;;;10.20;4.32;;;21.20;99.90;;;;;;5085693;28;20230;-84
2022/07/29 09:08:44;;;;;;;6.95;3.95;;;21.20;99.90;;;;;;5083778;28;20726;-84
2022/07/29 09:11:13;;;;;;;7.32;4.45;;;21.30;99.90;;;;;;5079361;28;20212;-83
2022/07/29 09:13:40;;;;;;;5.50;4.18;;;21.30;99.90;;;;;;5083291;28;20645;-84
2022/07/29 09:16:07;;;;;;;7.20;4.60;;;21.40;99.90;;;;;;5083371;28;20213;-82
2022/07/29 09:18:38;;;;;;;5.60;3.92;;;21.50;99.90;;;;;;5081735;28;20314;-85
2022/07/29 09:24:03;;;;;;;6.80;4.60;;;21.70;99.90;;;;;;5081520;28;20994;-84
2022/07/29 09:26:31;;;;;;;7.43;4.85;;;21.70;99.90;;;;;;5085269;28;20208;-86
2022/07/29 09:28:59;;;;;;;6.50;4.63;;;21.80;99.90;;;;;;5084555;28;20700;-84
2022/07/29 09:31:37;;;;;;;5.55;4.68;;;21.80;99.90;;;;;;5086080;28;20206;-85
2022/07/29 09:34:07;;;;;;;9.02;4.65;;;21.90;99.90;;;;;;5079314;28;20212;-84
2022/07/29 09:36:42;;;;;;;7.25;4.60;;;21.90;99.90;;;;;;5088975;28;20226;-85
2022/07/29 09:39:09;;;;;;;9.50;4.70;;;21.90;99.90;;;;;;5085841;28;20199;-85
2022/07/29 09:41:47;;;;;;;10.75;5.18;;;21.90;99.90;;;;;;5094290;28;20206;-86
2022/07/29 09:44:17;;;;;;;7.25;3.88;;;21.80;99.90;;;;;;5079063;28;20687;-85
2022/07/29 09:46:58;;;;;;;6.78;4.22;;;21.80;99.90;;;;;;5085995;28;20207;-84
2022/07/29 09:49:26;;;;;;;4.97;3.83;;;21.80;99.90;;;;;;5083102;28;20410;-84
2022/07/29 09:52:07;;;;;;;5.53;4.50;;;21.80;99.90;;;;;;5084643;28;20610;-85
2022/07/29 09:54:37;;;;;;;5.60;4.25;;;21.90;99.90;;;;;;5088060;28;20199;-85
2022/07/29 09:57:12;;;;;;;6.20;4.15;;;21.90;99.90;;;;;;5083520;28;20196;-85
2022/07/29 09:59:55;;;;;;;7.55;4.53;;;22.00;99.90;;;;;;5100752;28;20228;-86
2022/07/29 10:02:22;;;;;;;6.25;4.50;;;22.10;99.90;;;;;;5080869;28;20228;-86
2022/07/29 10:04:56;;;;;;;6.10;4.63;;;22.30;99.90;;;;;;5085645;28;20239;-86
2022/07/29 10:07:23;;;;;;;8.68;4.82;;;22.40;99.90;;;;;;5090955;28;20210;-86
2022/07/29 10:09:56;;;;;;;6.63;4.65;;;22.50;99.90;;;;;;5094082;28;20537;-86
2022/07/29 10:12:24;;;;;;;7.55;4.90;;;22.50;99.90;;;;;;5087538;28;20281;-85
2022/07/29 10:14:53;;;;;;;6.05;4.57;;;22.50;99.90;;;;;;5093906;28;20197;-84
2022/07/29 10:17:21;;;;;;;6.63;4.50;;;22.40;99.90;;;;;;5116396;28;20204;-86
2022/07/29 10:19:51;;;;;;;9.25;4.68;;;22.30;99.90;;;;;;5114184;28;20187;-91
2022/07/29 10:22:28;;;;;;;6.32;4.72;;;22.40;99.90;;;;;;5101435;28;20184;-88
2022/07/29 10:25:20;;;;;;;7.72;4.60;;;22.40;99.90;;;;;;5100398;28;20683;-88
2022/07/29 10:27:48;;;;;;;6.53;4.32;;;22.30;99.90;;;;;;5096682;28;20216;-93
2022/07/29 10:30:21;;;;;;;6.78;4.53;;;22.30;99.90;;;;;;5110793;28;20196;-94
2022/07/29 10:36:33;;;;;;;7.82;5.53;;;22.40;99.90;;;;;;5102101;28;20206;-88
2022/07/29 10:39:19;;;;;;;7.40;4.63;;;22.40;99.90;;;;;;5093181;28;20231;-89
2022/07/29 10:42:24;;;;;;;5.82;4.85;;;22.40;99.90;;;;;;5086740;28;20204;-89
2022/07/29 10:45:02;;;;;;;6.40;4.40;;;22.50;99.90;;;;;;5088769;28;20207;-87
2022/07/29 10:47:34;;;;;;;5.50;4.68;;;22.60;99.90;;;;;;5089435;28;20218;-87
2022/07/29 10:50:04;;;;;;;5.85;4.25;;;22.70;99.90;;;;;;5091423;28;20222;-86
2022/07/29 10:52:53;;;;;;;8.95;5.07;;;22.70;99.90;;;;;;5084300;28;20204;-87
2022/07/29 10:55:44;;;;;;;8.98;5.40;;;22.80;99.90;;;;;;5090545;28;20273;-86
2022/07/29 10:58:19;;;;;;;6.28;4.88;;;22.90;99.90;;;;;;5091498;28;20231;-89
2022/07/29 11:00:52;;;;;;;7.00;4.55;;;22.90;99.90;;;;;;5099894;28;20199;-91
2022/07/29 11:03:46;;;;;;;5.90;4.90;;;23.20;99.90;;;;;;5094796;28;20211;-91
2022/07/29 11:06:19;;;;;;;7.93;4.35;;;23.50;99.90;;;;;;5088371;28;20200;-85
2022/07/29 11:09:20;;;;;;;8.45;4.60;;;23.80;99.90;;;;;;5091967;28;20220;-86
2022/07/29 11:12:02;;;;;;;6.22;4.55;;;23.90;99.90;;;;;;5094610;28;20269;-87
2022/07/29 11:15:05;;;;;;;6.90;4.72;;;24.10;99.90;;;;;;5096687;28;20277;-86
2022/07/29 11:17:58;;;;;;;5.93;4.45;;;24.20;99.90;;;;;;5088068;28;20280;-86
2022/07/29 11:20:49;;;;;;;10.57;5.03;;;24.30;99.90;;;;;;5096060;28;20206;-85
2022/07/29 11:23:23;;;;;;;5.88;4.65;;;24.30;99.90;;;;;;5090096;28;20330;-85
2022/07/29 11:26:27;;;;;;;5.75;4.70;;;24.30;99.90;;;;;;5087675;28;20208;-85
2022/07/29 11:29:13;;;;;;;7.55;4.68;;;24.40;99.90;;;;;;5103251;28;20216;-85
2022/07/29 11:31:48;;;;;;;6.50;4.07;;;24.50;99.90;;;;;;5098222;28;20208;-85
2022/07/29 11:34:32;;;;;;;5.93;4.18;;;24.50;99.90;;;;;;5112189;28;20274;-87
2022/07/29 11:37:12;;;;;;;6.35;4.05;;;24.50;99.90;;;;;;5103124;28;20904;-86
2022/07/29 11:39:52;;;;;;;7.13;4.10;;;24.50;99.90;;;;;;5105246;28;20223;-86
2022/07/29 11:42:19;;;;;;;6.95;4.65;;;24.40;99.90;;;;;;5093282;28;20223;-87
2022/07/29 11:45:00;;;;;;;6.78;4.05;;;24.50;99.90;;;;;;5087526;28;20282;-86
2022/07/29 11:47:50;;;;;;;7.50;4.00;;;24.60;99.90;;;;;;5080277;28;20213;-85
2022/07/29 11:51:04;;;;;;;5.03;4.47;;;24.70;99.90;;;;;;5089650;28;20198;-89
2022/07/29 11:53:47;;;;;;;8.52;3.88;;;25.10;99.90;;;;;;5087468;28;20204;-92
2022/07/29 11:56:30;;;;;;;5.00;3.95;;;25.40;99.90;;;;;;5095297;28;20206;-92
2022/07/29 11:59:25;;;;;;;5.85;3.65;;;25.80;99.90;;;;;;5096073;28;20352;-96
2022/07/29 12:02:08;;;;;;;8.77;3.67;;;25.90;99.90;;;;;;5086754;28;20225;-91
2022/07/29 12:08:39;;;;;;;7.63;3.90;;;26.10;99.90;;;;;;5093771;28;20636;-93
2022/07/29 12:11:22;;;;;;;6.25;3.95;;;26.10;99.90;;;;;;5104790;28;20211;-92
2022/07/29 12:13:55;;;;;;;4.78;3.35;;;26.10;99.90;;;;;;5096693;28;20196;-87
2022/07/29 12:16:37;;;;;;;5.65;2.95;;;26.10;99.90;;;;;;5093609;28;20313;-90
2022/07/29 12:19:18;;;;;;;4.97;3.33;;;26.10;99.90;;;;;;5094469;28;20204;-91
2022/07/29 12:21:59;;;;;;;7.85;4.45;;;26.10;99.90;;;;;;5086714;28;20231;-90
2022/07/29 12:24:43;;;;;;;7.10;4.13;;;26.10;99.90;;;;;;5088007;28;20221;-87
2022/07/29 12:27:24;;;;;;;7.00;3.78;;;26.20;99.90;;;;;;5086720;28;20241;-91
2022/07/29 12:30:00;;;;;;;5.82;3.92;;;26.40;99.90;;;;;;5081110;28;20689;-87
2022/07/29 12:32:42;;;;;;;7.40;2.97;;;26.50;99.90;;;;;;5088862;28;20204;-92
2022/07/29 12:35:16;;;;;;;8.27;3.92;;;26.70;99.90;;;;;;5076962;28;20289;-88
2022/07/29 12:37:51;;;;;;;5.60;3.40;;;26.80;99.90;;;;;;5088970;28;20205;-86
2022/07/29 12:40:22;;;;;;;7.72;3.47;;;26.90;99.90;;;;;;5085525;28;20301;-87
2022/07/29 12:43:09;;;;;;;6.70;2.78;;;26.90;99.90;;;;;;5077048;28;20208;-88
2022/07/29 12:45:38;;;;;;;6.70;2.72;;;27.10;99.90;;;;;;5082460;28;20204;-86
2022/07/29 12:48:08;;;;;;;7.57;2.90;;;27.30;99.90;;;;;;5088632;28;20941;-82
2022/07/29 12:50:53;;;;;;;5.95;3.13;;;27.40;99.80;;;;;;5080132;28;20203;-84
2022/07/29 12:53:20;;;;;;;5.43;3.13;;;27.50;99.90;;;;;;5076917;28;20199;-86
2022/07/29 12:55:51;;;;;;;5.07;3.35;;;27.60;99.60;;;;;;5088327;28;20203;-85
2022/07/29 12:58:35;;;;;;;10.00;3.80;;;27.70;98.60;;;;;;5094672;28;20227;-89
2022/07/29 13:01:19;;;;;;;4.68;3.30;;;27.70;98.10;;;;;;5094344;28;20208;-89
2022/07/29 13:03:57;;;;;;;4.75;3.30;;;27.70;98.00;;;;;;5081646;28;20220;-91
2022/07/29 13:06:40;;;;;;;6.20;3.35;;;27.60;97.30;;;;;;5053722;28;20205;-85
2022/07/29 13:09:10;;;;;;;8.02;3.75;;;27.60;97.70;;;;;;5054941;28;20223;-88
2022/07/29 13:11:39;;;;;;;6.80;3.65;;;27.60;97.80;;;;;;5072029;28;20277;-88
2022/07/29 13:14:29;;;;;;;5.95;3.50;;;27.70;97.00;;;;;;5052809;28;20205;-87
2022/07/29 13:17:02;;;;;;;6.78;3.53;;;27.70;96.70;;;;;;5054113;28;20283;-86
2022/07/29 13:19:42;;;;;;;6.43;3.78;;;27.70;96.50;;;;;;5073108;28;20204;-93
2022/07/29 13:22:12;;;;;;;6.38;3.70;;;27.80;96.00;;;;;;5056369;28;20206;-88
2022/07/29 13:25:06;;;;;;;7.90;3.85;;;27.90;95.80;;;;;;5055352;28;20196;-86
2022/07/29 13:27:37;;;;;;;6.43;3.20;;;28.00;95.20;;;;;;5046167;28;20242;-82
2022/07/29 13:30:07;;;;;;;7.55;2.92;;;27.90;95.10;;;;;;5064747;28;20223;-82